Time;durP1;ratioP1;P1;durP2;ratioP2;P2;SDS_P1;SDS_P2;PMS_P1;PMS_P2;Temp;Humidity;BMP_temperature;BMP_pressure;BME280_temperature;BME280_humidity;BME280_pressure;Samples;Min_cycle;Max_cycle;Signal;HPM_P1;HPM_P2
2022/07/04 00:00:45;;;;;;;2.30;1.05;;;17.40;99.90;;;;;;4975093;28;20621;-83
2022/07/04 00:03:11;;;;;;;5.10;1.10;;;17.40;99.90;;;;;;4973702;28;20262;-81
2022/07/04 00:05:37;;;;;;;7.97;1.00;;;17.30;99.90;;;;;;4974694;28;20166;-82
2022/07/04 00:08:02;;;;;;;2.78;1.25;;;17.20;99.90;;;;;;4974642;28;20686;-81
2022/07/04 00:10:28;;;;;;;8.60;1.58;;;16.90;99.90;;;;;;4974425;28;20257;-82
2022/07/04 00:12:54;;;;;;;5.25;0.98;;;16.80;99.90;;;;;;4973511;28;20170;-82
2022/07/04 00:15:20;;;;;;;3.15;1.00;;;16.90;99.90;;;;;;4974094;28;20170;-82
2022/07/04 00:17:45;;;;;;;7.28;1.00;;;16.80;99.90;;;;;;4974732;28;20240;-81
2022/07/04 00:20:12;;;;;;;3.10;1.00;;;16.80;99.90;;;;;;4973585;28;20562;-85
2022/07/04 00:22:38;;;;;;;5.28;0.90;;;16.70;99.90;;;;;;4973450;28;20248;-87
2022/07/04 00:25:05;;;;;;;4.70;1.70;;;16.70;99.90;;;;;;4973581;28;20717;-85
2022/07/04 00:27:30;;;;;;;5.93;1.35;;;16.70;99.90;;;;;;4974591;28;20178;-84
2022/07/04 00:29:56;;;;;;;5.47;1.15;;;16.80;99.90;;;;;;4974452;28;20182;-82
2022/07/04 00:32:22;;;;;;;3.03;1.25;;;16.80;99.90;;;;;;4974411;28;20610;-81
2022/07/04 00:34:48;;;;;;;4.10;1.35;;;16.80;99.90;;;;;;4974254;28;20193;-82
2022/07/04 00:37:14;;;;;;;4.65;1.30;;;16.80;99.90;;;;;;4974742;28;20264;-81
2022/07/04 00:39:40;;;;;;;3.72;1.45;;;16.90;99.90;;;;;;4973769;28;20692;-82
2022/07/04 00:42:06;;;;;;;8.73;1.63;;;16.90;99.90;;;;;;4974067;28;20201;-87
2022/07/04 00:44:36;;;;;;;3.00;1.30;;;16.80;99.90;;;;;;4973156;28;20181;-84
2022/07/04 00:47:02;;;;;;;3.00;1.38;;;16.80;99.90;;;;;;4973444;28;20201;-83
2022/07/04 00:49:28;;;;;;;4.68;1.58;;;16.80;99.90;;;;;;4972828;28;20216;-84
2022/07/04 00:51:54;;;;;;;7.97;1.60;;;16.80;99.90;;;;;;4974430;28;20169;-83
2022/07/04 00:54:24;;;;;;;5.68;1.30;;;16.80;99.90;;;;;;4974210;28;20169;-84
2022/07/04 00:56:50;;;;;;;9.20;1.50;;;16.60;99.90;;;;;;4974669;28;20166;-83
2022/07/04 00:59:16;;;;;;;4.43;1.33;;;16.40;99.90;;;;;;4974203;28;20201;-81
2022/07/04 01:01:41;;;;;;;5.78;1.00;;;16.50;99.90;;;;;;4974150;28;20201;-85
2022/07/04 01:04:07;;;;;;;5.22;1.13;;;16.70;99.90;;;;;;4974227;28;20165;-85
2022/07/04 01:06:33;;;;;;;9.93;1.40;;;16.80;99.90;;;;;;4974148;28;20631;-81
2022/07/04 01:08:59;;;;;;;2.90;1.52;;;16.60;99.90;;;;;;4974174;28;20193;-81
2022/07/04 01:11:25;;;;;;;2.00;1.40;;;16.70;99.90;;;;;;4972900;28;20173;-85
2022/07/04 01:13:52;;;;;;;3.03;1.33;;;16.80;99.90;;;;;;4973910;28;20169;-85
2022/07/04 01:16:18;;;;;;;5.72;1.42;;;16.60;99.90;;;;;;4972871;28;20544;-83
2022/07/04 01:18:44;;;;;;;3.47;1.38;;;16.60;99.90;;;;;;4973841;28;20186;-81
2022/07/04 01:21:09;;;;;;;4.68;1.40;;;16.50;99.90;;;;;;4973582;28;20205;-81
2022/07/04 01:23:39;;;;;;;6.88;1.45;;;16.40;99.90;;;;;;4976212;28;20622;-81
2022/07/04 01:26:05;;;;;;;2.50;1.27;;;16.20;99.90;;;;;;4976889;28;20170;-81
2022/07/04 01:28:31;;;;;;;3.15;1.08;;;16.30;99.90;;;;;;4977885;28;20669;-82
2022/07/04 01:30:57;;;;;;;2.63;1.50;;;16.20;99.90;;;;;;4976772;28;20193;-81
2022/07/04 01:33:23;;;;;;;7.88;1.50;;;16.20;99.90;;;;;;4978060;28;20178;-82
2022/07/04 01:35:48;;;;;;;5.28;1.85;;;16.10;99.90;;;;;;4976591;28;20260;-81
2022/07/04 01:38:14;;;;;;;3.70;1.40;;;16.10;99.90;;;;;;4976357;28;20162;-83
2022/07/04 01:40:40;;;;;;;3.45;1.45;;;16.20;99.90;;;;;;4977849;28;20178;-85
2022/07/04 01:43:06;;;;;;;2.45;1.67;;;16.30;99.90;;;;;;4977214;28;20205;-85
2022/07/04 01:45:37;;;;;;;6.78;1.00;;;16.30;99.90;;;;;;4977328;28;20170;-83
2022/07/04 01:48:07;;;;;;;4.22;1.17;;;16.20;99.90;;;;;;4976550;28;20169;-81
2022/07/04 01:50:34;;;;;;;3.45;1.35;;;16.20;99.90;;;;;;4979939;28;20262;-82
2022/07/04 01:53:00;;;;;;;4.63;2.00;;;16.20;99.90;;;;;;4980347;28;20166;-82
2022/07/04 01:55:26;;;;;;;3.92;1.25;;;16.20;99.90;;;;;;4978652;28;20170;-82
2022/07/04 01:57:51;;;;;;;2.40;1.38;;;16.10;99.90;;;;;;4978032;28;20173;-82
2022/07/04 02:03:01;;;;;;;5.47;1.40;;;16.10;99.90;;;;;;4977459;28;20217;-85
2022/07/04 02:05:27;;;;;;;11.05;1.65;;;16.10;99.90;;;;;;4976189;28;20546;-85
2022/07/04 02:07:53;;;;;;;4.05;1.20;;;16.00;99.90;;;;;;4976498;28;20174;-84
2022/07/04 02:10:19;;;;;;;3.75;1.20;;;16.10;99.90;;;;;;4977221;28;20213;-85
2022/07/04 02:13:03;;;;;;;5.53;1.30;;;16.10;99.90;;;;;;4977311;28;20173;-81
2022/07/04 02:15:37;;;;;;;2.38;1.23;;;16.20;99.90;;;;;;4977189;28;20162;-87
2022/07/04 02:18:05;;;;;;;1.63;1.02;;;16.00;99.90;;;;;;4975679;28;20630;-84
2022/07/04 02:20:31;;;;;;;2.95;1.23;;;16.00;99.90;;;;;;4977194;28;20162;-81
2022/07/04 02:22:56;;;;;;;2.72;1.27;;;15.80;99.90;;;;;;4976748;28;20210;-80
2022/07/04 02:25:23;;;;;;;6.38;1.48;;;15.70;99.90;;;;;;4976599;28;20276;-81
2022/07/04 02:27:49;;;;;;;3.95;1.27;;;15.70;99.90;;;;;;4975882;28;20638;-86
2022/07/04 02:30:15;;;;;;;4.68;1.13;;;15.70;99.90;;;;;;4976409;28;20284;-80
2022/07/04 02:32:41;;;;;;;4.93;1.65;;;15.70;99.90;;;;;;4975456;28;20666;-81
2022/07/04 02:35:07;;;;;;;2.25;1.10;;;15.80;99.90;;;;;;4975535;28;20174;-86
2022/07/04 02:37:33;;;;;;;2.88;1.48;;;15.70;99.90;;;;;;4975438;28;20170;-83
2022/07/04 02:39:59;;;;;;;5.80;1.85;;;15.70;99.90;;;;;;4976666;28;20198;-84
2022/07/04 02:42:28;;;;;;;1.30;1.20;;;15.70;99.90;;;;;;4975576;28;20229;-80
2022/07/04 02:44:53;;;;;;;5.85;1.75;;;15.60;99.90;;;;;;4975527;28;20162;-82
2022/07/04 02:47:19;;;;;;;1.77;1.25;;;15.50;99.90;;;;;;4976352;28;20219;-84
2022/07/04 02:49:44;;;;;;;7.80;1.67;;;15.40;99.90;;;;;;4974964;28;20189;-85
2022/07/04 02:52:10;;;;;;;3.25;1.23;;;15.50;99.90;;;;;;4975012;28;20610;-84
2022/07/04 02:54:36;;;;;;;7.43;1.40;;;15.60;99.90;;;;;;4975609;28;20169;-86
2022/07/04 02:57:01;;;;;;;3.17;1.45;;;15.70;99.90;;;;;;4975898;28;20205;-85
2022/07/04 02:59:27;;;;;;;5.15;1.45;;;15.70;99.90;;;;;;4976571;28;20193;-84
2022/07/04 03:01:53;;;;;;;2.80;1.58;;;15.70;99.90;;;;;;4976321;28;20208;-86
2022/07/04 03:04:18;;;;;;;2.17;1.40;;;15.70;99.90;;;;;;4975466;28;20189;-83
2022/07/04 03:06:44;;;;;;;2.75;1.50;;;15.70;99.90;;;;;;4975939;28;20174;-81
2022/07/04 03:09:10;;;;;;;1.48;1.38;;;15.80;99.90;;;;;;4976015;28;20198;-85
2022/07/04 03:11:36;;;;;;;8.85;1.40;;;15.80;99.90;;;;;;4975622;28;20178;-82
2022/07/04 03:14:01;;;;;;;8.88;1.50;;;16.00;99.90;;;;;;4975680;28;20164;-86
2022/07/04 03:16:27;;;;;;;6.15;2.00;;;16.20;99.90;;;;;;4976059;28;20166;-81
2022/07/04 03:18:53;;;;;;;4.68;1.60;;;16.10;99.90;;;;;;4974619;28;20185;-81
2022/07/04 03:21:19;;;;;;;3.20;1.42;;;16.10;99.90;;;;;;4975934;28;20728;-85
2022/07/04 03:23:57;;;;;;;3.40;1.67;;;16.10;99.90;;;;;;4975067;28;20266;-86
2022/07/04 03:26:24;;;;;;;2.03;1.40;;;16.00;99.90;;;;;;4974929;28;20213;-80
2022/07/04 03:28:51;;;;;;;2.65;1.35;;;15.90;99.90;;;;;;4974512;28;20292;-82
2022/07/04 03:31:16;;;;;;;4.95;1.45;;;15.90;99.90;;;;;;4976015;28;20268;-80
2022/07/04 03:33:42;;;;;;;4.63;2.20;;;15.80;99.90;;;;;;4975257;28;20640;-80
2022/07/04 03:36:08;;;;;;;2.53;1.42;;;15.70;99.90;;;;;;4975723;28;20173;-86
2022/07/04 03:38:33;;;;;;;8.10;1.33;;;15.60;99.90;;;;;;4974232;28;20217;-81
2022/07/04 03:40:59;;;;;;;6.03;1.75;;;15.50;99.90;;;;;;4974717;28;20287;-87
2022/07/04 03:43:24;;;;;;;6.22;1.33;;;15.50;99.90;;;;;;4975700;28;20227;-81
2022/07/04 03:45:50;;;;;;;8.00;1.50;;;15.80;99.90;;;;;;4975456;28;20189;-81
2022/07/04 03:48:16;;;;;;;4.03;2.08;;;15.90;99.90;;;;;;4975138;28;20190;-85
2022/07/04 03:50:41;;;;;;;4.70;1.70;;;15.80;99.90;;;;;;4974100;28;20173;-84
2022/07/04 03:53:07;;;;;;;3.20;1.30;;;15.40;99.90;;;;;;4973769;28;20228;-85
2022/07/04 03:55:32;;;;;;;2.47;1.60;;;15.40;99.90;;;;;;4973474;28;20166;-81
2022/07/04 03:57:58;;;;;;;9.55;1.70;;;15.30;99.90;;;;;;4973977;28;20180;-81
2022/07/04 04:00:24;;;;;;;2.78;1.20;;;15.40;99.90;;;;;;4973991;28;20257;-84
2022/07/04 04:02:49;;;;;;;2.53;1.42;;;15.30;99.90;;;;;;4975122;28;20574;-86
2022/07/04 04:05:27;;;;;;;4.75;1.48;;;15.30;99.90;;;;;;4974007;28;20177;-82
2022/07/04 04:08:00;;;;;;;9.55;1.52;;;15.30;99.90;;;;;;4973888;28;20244;-81
2022/07/04 04:10:28;;;;;;;4.47;1.48;;;15.80;99.90;;;;;;4973857;28;20256;-81
2022/07/04 04:12:54;;;;;;;1.95;1.48;;;16.40;99.90;;;;;;4974925;28;20201;-87
2022/07/04 04:15:19;;;;;;;2.03;1.20;;;16.80;99.90;;;;;;4975043;28;20297;-84
2022/07/04 04:17:45;;;;;;;4.05;1.27;;;17.30;99.90;;;;;;4974105;28;20174;-81
2022/07/04 04:20:11;;;;;;;5.00;1.38;;;17.30;99.90;;;;;;4973684;28;20203;-81
2022/07/04 04:22:37;;;;;;;10.77;1.40;;;17.60;99.90;;;;;;4973657;28;20218;-82
2022/07/04 04:25:02;;;;;;;3.55;1.33;;;17.90;99.90;;;;;;4973403;28;20308;-85
2022/07/04 04:27:28;;;;;;;7.15;1.40;;;17.90;99.90;;;;;;4973788;28;20174;-84
2022/07/04 04:29:54;;;;;;;3.53;1.67;;;17.90;99.90;;;;;;4974380;28;20190;-86
2022/07/04 04:32:19;;;;;;;2.50;1.25;;;17.80;99.90;;;;;;4973523;28;20182;-81
2022/07/04 04:34:45;;;;;;;8.75;1.30;;;17.60;99.90;;;;;;4974644;28;20538;-81
2022/07/04 04:37:10;;;;;;;1.98;1.08;;;17.70;99.90;;;;;;4974835;28;20240;-81
2022/07/04 04:39:36;;;;;;;3.03;1.20;;;17.40;99.90;;;;;;4974635;28;20669;-81
2022/07/04 04:42:02;;;;;;;2.53;1.23;;;17.20;99.90;;;;;;4974670;28;20209;-81
2022/07/04 04:44:28;;;;;;;2.83;1.35;;;17.10;99.90;;;;;;4976820;28;20249;-82
2022/07/04 04:46:53;;;;;;;6.53;1.55;;;17.20;99.90;;;;;;4976213;28;20180;-80
2022/07/04 04:49:19;;;;;;;1.73;1.10;;;17.00;99.90;;;;;;4975474;28;20668;-80
2022/07/04 04:51:45;;;;;;;3.38;1.45;;;16.90;99.90;;;;;;4976259;28;20170;-80
2022/07/04 04:54:11;;;;;;;6.80;1.30;;;17.00;99.90;;;;;;4977485;28;20828;-80
2022/07/04 04:56:36;;;;;;;3.92;1.38;;;17.00;99.90;;;;;;4979244;28;20180;-80
2022/07/04 04:59:02;;;;;;;3.63;1.67;;;16.90;99.90;;;;;;4975837;28;20194;-80
2022/07/04 05:01:27;;;;;;;6.22;1.10;;;17.00;99.90;;;;;;4978319;28;20205;-80
2022/07/04 05:03:53;;;;;;;3.60;1.40;;;17.00;99.90;;;;;;4992060;28;20194;-80
2022/07/04 05:06:19;;;;;;;4.15;1.35;;;17.10;99.90;;;;;;4994392;28;20193;-82
2022/07/04 05:08:45;;;;;;;2.72;1.60;;;17.20;99.90;;;;;;4991791;28;20666;-81
2022/07/04 05:11:11;;;;;;;5.60;1.35;;;17.00;99.90;;;;;;4994111;28;20165;-83
2022/07/04 05:13:36;;;;;;;2.67;1.10;;;17.10;99.90;;;;;;4992247;28;20190;-84
2022/07/04 05:16:02;;;;;;;4.32;1.17;;;17.20;99.90;;;;;;4992504;28;20190;-83
2022/07/04 05:18:28;;;;;;;4.78;1.52;;;17.20;99.90;;;;;;4993330;28;20258;-81
2022/07/04 05:20:54;;;;;;;2.13;1.27;;;17.20;99.90;;;;;;4976542;28;20642;-80
2022/07/04 05:23:20;;;;;;;3.78;1.40;;;17.40;99.90;;;;;;4974213;28;20635;-80
2022/07/04 05:25:47;;;;;;;8.35;1.60;;;17.60;99.90;;;;;;4972655;28;20180;-80
2022/07/04 05:28:12;;;;;;;4.55;1.55;;;17.50;99.90;;;;;;4973936;28;20170;-87
2022/07/04 05:30:38;;;;;;;2.97;1.40;;;17.40;99.90;;;;;;4972744;28;20200;-80
2022/07/04 05:33:03;;;;;;;7.05;1.27;;;17.50;99.90;;;;;;4973731;28;20166;-80
2022/07/04 05:35:31;;;;;;;4.93;1.20;;;17.40;99.90;;;;;;4972675;28;20669;-88
2022/07/04 05:37:57;;;;;;;3.60;1.38;;;17.60;99.90;;;;;;4972657;28;20646;-85
2022/07/04 05:40:23;;;;;;;0.60;0.60;;;17.60;99.90;;;;;;4973247;28;20211;-86
2022/07/04 05:42:48;;;;;;;5.97;1.40;;;17.80;99.90;;;;;;4974391;28;20238;-87
2022/07/04 05:45:14;;;;;;;4.68;1.42;;;17.60;99.90;;;;;;4973717;28;20252;-86
2022/07/04 05:47:40;;;;;;;8.90;1.40;;;17.60;99.90;;;;;;4973427;28;20180;-89
2022/07/04 05:50:06;;;;;;;7.85;1.40;;;17.60;99.90;;;;;;4974332;28;20182;-87
2022/07/04 05:52:32;;;;;;;15.63;1.48;;;17.60;99.90;;;;;;4973425;28;20174;-82
2022/07/04 05:54:57;;;;;;;5.55;1.20;;;17.70;99.90;;;;;;4973084;28;20264;-83
2022/07/04 05:57:23;;;;;;;6.63;1.35;;;17.80;99.90;;;;;;4974486;28;20171;-82
2022/07/04 05:59:48;;;;;;;9.93;1.30;;;17.90;99.90;;;;;;4974513;28;20638;-84
2022/07/04 06:02:15;;;;;;;6.30;1.90;;;17.90;99.90;;;;;;4974553;28;20213;-87
2022/07/04 06:04:40;;;;;;;5.75;1.00;;;17.90;99.90;;;;;;4973391;28;20206;-87
2022/07/04 06:07:08;;;;;;;2.38;1.40;;;17.80;99.90;;;;;;4973108;28;20216;-87
2022/07/04 06:09:33;;;;;;;8.15;1.70;;;17.90;99.90;;;;;;4974385;28;20209;-87
2022/07/04 06:11:59;;;;;;;6.55;1.80;;;17.90;99.90;;;;;;4977967;28;20162;-88
2022/07/04 06:14:24;;;;;;;10.68;1.38;;;18.00;99.90;;;;;;4977289;28;20673;-85
2022/07/04 06:16:50;;;;;;;6.05;1.35;;;18.10;99.90;;;;;;4977187;28;20181;-86
2022/07/04 06:19:17;;;;;;;5.10;1.38;;;18.10;99.90;;;;;;4976369;28;20193;-84
2022/07/04 06:21:43;;;;;;;8.10;1.50;;;18.20;99.90;;;;;;4975756;28;20678;-80
2022/07/04 06:24:08;;;;;;;4.25;1.20;;;18.30;99.90;;;;;;4975620;28;20254;-82
2022/07/04 06:26:34;;;;;;;10.85;1.25;;;18.40;99.90;;;;;;4983374;28;20154;-81
2022/07/04 06:29:00;;;;;;;6.35;1.63;;;18.60;99.90;;;;;;4985097;28;20194;-81
2022/07/04 06:31:25;;;;;;;6.15;1.58;;;18.50;99.90;;;;;;4985613;28;20280;-82
2022/07/04 06:36:35;;;;;;;7.57;1.58;;;18.40;99.90;;;;;;5000325;28;20165;-81
2022/07/04 06:39:01;;;;;;;2.90;1.55;;;18.30;99.90;;;;;;4980454;28;20197;-85
2022/07/04 06:41:27;;;;;;;7.82;1.65;;;18.40;99.90;;;;;;4978872;28;20234;-87
2022/07/04 06:43:53;;;;;;;6.45;1.60;;;18.60;99.90;;;;;;4975755;28;20170;-81
2022/07/04 06:46:19;;;;;;;9.80;1.40;;;18.90;99.90;;;;;;4975167;28;20177;-80
2022/07/04 06:48:45;;;;;;;4.35;1.40;;;19.10;99.90;;;;;;4975334;28;20205;-80
2022/07/04 06:51:11;;;;;;;4.97;1.52;;;19.20;99.90;;;;;;4975559;28;20530;-83
2022/07/04 06:53:36;;;;;;;2.47;1.08;;;19.20;99.90;;;;;;4974733;28;20181;-84
2022/07/04 06:56:02;;;;;;;7.70;1.88;;;19.30;99.90;;;;;;4977225;28;20162;-79
2022/07/04 06:58:28;;;;;;;8.80;1.52;;;19.80;99.90;;;;;;4976575;28;20209;-85
2022/07/04 07:00:53;;;;;;;6.03;1.20;;;20.10;99.90;;;;;;4976187;28;20611;-85
2022/07/04 07:03:19;;;;;;;8.90;1.23;;;21.20;99.90;;;;;;4977216;28;20206;-89
2022/07/04 07:05:45;;;;;;;2.70;1.15;;;21.90;99.90;;;;;;4978572;28;20162;-89
2022/07/04 07:08:11;;;;;;;3.75;0.93;;;22.70;99.90;;;;;;4977102;28;20546;-87
2022/07/04 07:10:36;;;;;;;2.63;0.90;;;24.30;99.90;;;;;;4975069;28;20174;-84
2022/07/04 07:13:02;;;;;;;7.10;1.00;;;25.30;99.90;;;;;;4976476;28;20181;-78
2022/07/04 07:15:29;;;;;;;5.72;0.98;;;25.00;99.90;;;;;;4975863;28;20162;-85
2022/07/04 07:17:55;;;;;;;3.90;0.75;;;26.00;99.90;;;;;;4977362;28;20177;-81
2022/07/04 07:20:20;;;;;;;5.10;0.98;;;26.30;99.90;;;;;;4976152;28;20317;-81
2022/07/04 07:22:46;;;;;;;8.60;1.13;;;25.70;99.90;;;;;;4977345;28;20219;-81
2022/07/04 07:25:12;;;;;;;0.95;0.70;;;25.50;99.90;;;;;;4976398;28;20181;-81
2022/07/04 07:27:40;;;;;;;2.78;0.88;;;25.60;99.90;;;;;;4978049;28;20209;-92
2022/07/04 07:30:07;;;;;;;6.75;0.73;;;26.30;99.90;;;;;;4976840;28;20194;-90
2022/07/04 07:32:33;;;;;;;1.13;0.60;;;25.70;99.90;;;;;;4976603;28;20173;-87
2022/07/04 07:34:59;;;;;;;6.57;3.10;;;25.00;99.90;;;;;;4976529;28;20201;-85
2022/07/04 07:37:24;;;;;;;10.68;1.83;;;25.60;99.90;;;;;;4977469;28;20266;-83
2022/07/04 07:39:50;;;;;;;12.75;2.45;;;25.80;99.90;;;;;;4976369;28;20193;-88
2022/07/04 07:42:16;;;;;;;4.05;1.10;;;26.20;99.90;;;;;;4976487;28;20701;-93
2022/07/04 07:44:45;;;;;;;5.00;1.55;;;25.90;99.90;;;;;;4978161;28;20166;-84
2022/07/04 07:47:12;;;;;;;4.45;1.00;;;27.30;99.90;;;;;;4978981;28;20170;-85
2022/07/04 07:49:38;;;;;;;7.60;0.70;;;26.70;99.90;;;;;;4979007;28;20543;-84
2022/07/04 07:52:04;;;;;;;6.55;0.70;;;26.80;99.90;;;;;;4975817;28;20172;-83
2022/07/04 07:54:29;;;;;;;14.23;1.05;;;26.60;99.90;;;;;;4974340;28;20186;-85
2022/07/04 07:56:55;;;;;;;4.90;0.68;;;26.20;99.90;;;;;;4974129;28;20177;-84
2022/07/04 07:59:21;;;;;;;8.15;0.77;;;25.70;99.90;;;;;;4975055;28;20280;-84
2022/07/04 08:01:46;;;;;;;2.53;0.68;;;24.90;99.90;;;;;;4975516;28;20260;-83
2022/07/04 08:06:56;;;;;;;1.80;0.70;;;23.70;99.90;;;;;;4975775;28;20184;-89
2022/07/04 08:09:22;;;;;;;1.55;0.70;;;23.20;99.90;;;;;;4979116;28;20288;-89
2022/07/04 08:11:47;;;;;;;2.95;0.70;;;22.90;99.90;;;;;;4994146;28;20240;-87
2022/07/04 08:14:13;;;;;;;1.88;0.70;;;22.60;99.90;;;;;;4994908;28;20605;-88
2022/07/04 08:16:40;;;;;;;3.90;0.80;;;22.50;99.90;;;;;;4994666;28;20192;-89
2022/07/04 08:19:05;;;;;;;1.95;0.60;;;22.50;99.90;;;;;;4994367;28;20231;-90
2022/07/04 08:21:31;;;;;;;4.43;0.88;;;22.40;99.90;;;;;;4994155;28;20232;-89
2022/07/04 08:23:57;;;;;;;1.38;0.65;;;22.60;99.90;;;;;;4995645;28;20176;-86
2022/07/04 08:26:23;;;;;;;1.35;0.60;;;22.70;99.90;;;;;;4994709;28;20169;-89
2022/07/04 08:28:49;;;;;;;2.72;0.60;;;22.90;99.90;;;;;;4993952;28;20208;-89
2022/07/04 08:31:15;;;;;;;5.47;0.60;;;22.70;99.90;;;;;;4995910;28;20184;-90
2022/07/04 08:33:41;;;;;;;4.88;0.70;;;22.50;99.90;;;;;;4994150;28;20173;-93
2022/07/04 08:36:06;;;;;;;6.13;0.90;;;22.40;99.90;;;;;;4993617;28;20213;-81
2022/07/04 08:38:32;;;;;;;2.72;0.73;;;22.30;99.90;;;;;;4994951;28;20196;-91
2022/07/04 08:41:01;;;;;;;3.13;0.90;;;22.40;99.90;;;;;;4993241;28;20626;-84
2022/07/04 08:43:32;;;;;;;5.10;0.80;;;22.40;99.90;;;;;;4993295;28;20272;-86
2022/07/04 08:45:59;;;;;;;5.15;1.52;;;22.50;99.90;;;;;;4985710;28;20166;-82
2022/07/04 08:48:27;;;;;;;5.50;0.95;;;22.60;99.90;;;;;;4988017;28;20193;-87
2022/07/04 08:50:58;;;;;;;2.90;0.85;;;22.80;99.90;;;;;;4995644;28;20546;-82
2022/07/04 08:53:30;;;;;;;4.95;0.70;;;23.00;99.90;;;;;;5000728;28;20169;-82
2022/07/04 08:58:42;;;;;;;5.03;1.15;;;23.00;99.90;;;;;;4985882;28;20248;-85
2022/07/04 09:01:17;;;;;;;1.63;0.80;;;23.00;99.90;;;;;;4993216;28;20161;-82
2022/07/04 09:03:44;;;;;;;1.05;0.70;;;22.90;99.90;;;;;;4996837;28;20181;-83
2022/07/04 09:06:11;;;;;;;1.73;0.70;;;22.90;99.90;;;;;;4994253;28;20642;-83
2022/07/04 09:08:37;;;;;;;9.52;1.00;;;23.10;99.90;;;;;;4991045;28;20193;-83
2022/07/04 09:11:03;;;;;;;1.80;0.98;;;23.40;99.90;;;;;;4992654;28;20642;-88
2022/07/04 09:13:31;;;;;;;10.32;1.08;;;23.60;99.90;;;;;;4994130;28;20236;-88
2022/07/04 09:15:57;;;;;;;7.05;0.95;;;23.50;99.90;;;;;;4993292;28;20312;-86
2022/07/04 09:18:33;;;;;;;2.58;0.73;;;23.40;99.90;;;;;;4993394;28;20678;-86
2022/07/04 09:21:09;;;;;;;7.15;0.90;;;23.40;99.90;;;;;;4993702;28;20177;-88
2022/07/04 09:23:40;;;;;;;1.25;0.60;;;23.40;99.90;;;;;;4977911;28;20227;-86
2022/07/04 09:26:26;;;;;;;2.53;0.85;;;23.40;99.90;;;;;;4993385;28;20173;-88
2022/07/04 09:28:56;;;;;;;3.88;1.42;;;23.40;99.90;;;;;;4994258;28;20673;-85
2022/07/04 09:31:24;;;;;;;1.70;0.75;;;23.50;99.90;;;;;;4997142;28;20272;-87
2022/07/04 09:33:55;;;;;;;6.90;1.00;;;23.60;99.90;;;;;;4993394;28;20211;-86
2022/07/04 09:36:23;;;;;;;5.38;1.10;;;23.60;99.90;;;;;;4993754;28;20183;-86
2022/07/04 09:39:14;;;;;;;2.30;1.15;;;23.60;99.90;;;;;;4996320;28;20273;-87
2022/07/04 09:41:50;;;;;;;3.25;1.02;;;23.50;99.90;;;;;;4995003;28;20333;-86
2022/07/04 09:44:17;;;;;;;4.95;1.00;;;23.50;99.90;;;;;;4996770;28;20173;-86
2022/07/04 09:46:43;;;;;;;4.50;1.15;;;23.60;99.90;;;;;;4999285;28;20173;-87
2022/07/04 09:49:11;;;;;;;4.15;1.08;;;23.70;99.90;;;;;;4997621;28;20240;-85
2022/07/04 09:51:42;;;;;;;2.20;1.40;;;23.90;99.90;;;;;;4997703;28;20517;-87
2022/07/04 09:54:30;;;;;;;4.47;1.00;;;24.10;99.90;;;;;;5001870;28;20169;-86
2022/07/04 09:57:00;;;;;;;3.08;0.85;;;24.20;99.90;;;;;;5004627;28;20227;-85
2022/07/04 09:59:27;;;;;;;2.00;0.85;;;24.30;99.90;;;;;;5003143;28;20201;-86
2022/07/04 10:02:15;;;;;;;5.57;1.10;;;24.00;99.90;;;;;;4997480;28;20228;-86
2022/07/04 10:04:52;;;;;;;3.80;1.50;;;23.70;99.90;;;;;;4994848;28;20170;-87
2022/07/04 10:07:43;;;;;;;3.78;1.05;;;24.00;99.90;;;;;;4984062;28;20193;-87
2022/07/04 10:10:33;;;;;;;1.90;0.98;;;24.30;99.90;;;;;;4978963;28;20189;-87
2022/07/04 10:13:07;;;;;;;2.88;1.00;;;24.50;99.90;;;;;;4988340;28;20181;-87
2022/07/04 10:15:35;;;;;;;16.80;1.65;;;24.60;99.90;;;;;;5016505;28;20189;-83
2022/07/04 10:18:01;;;;;;;9.00;1.00;;;24.90;99.90;;;;;;5019324;28;20165;-85
2022/07/04 10:20:27;;;;;;;2.25;1.42;;;24.70;99.90;;;;;;5005057;28;20249;-92
2022/07/04 10:22:53;;;;;;;2.60;1.05;;;24.50;99.90;;;;;;4996978;28;20209;-85
2022/07/04 10:25:19;;;;;;;2.42;0.80;;;24.50;99.90;;;;;;4997736;28;20176;-85
2022/07/04 10:27:45;;;;;;;4.30;1.00;;;24.30;99.90;;;;;;4996676;28;20260;-86
2022/07/04 10:30:15;;;;;;;3.40;1.00;;;24.50;99.90;;;;;;4996374;28;20229;-90
2022/07/04 10:32:45;;;;;;;2.83;1.00;;;24.90;99.90;;;;;;5001223;28;20165;-84
2022/07/04 10:35:15;;;;;;;3.13;1.00;;;25.00;99.90;;;;;;5002615;28;20161;-90
2022/07/04 10:38:02;;;;;;;2.05;1.27;;;25.20;99.90;;;;;;4996288;28;20193;-86
2022/07/04 10:41:04;;;;;;;2.88;1.20;;;24.70;99.90;;;;;;4998351;28;20169;-87
2022/07/04 10:43:30;;;;;;;1.85;0.95;;;25.00;99.90;;;;;;5002786;28;20194;-87
2022/07/04 10:46:02;;;;;;;1.25;0.88;;;24.90;99.90;;;;;;5000214;28;20252;-88
2022/07/04 10:48:29;;;;;;;6.00;1.00;;;24.90;99.90;;;;;;5002284;28;20733;-85
2022/07/04 10:51:01;;;;;;;5.00;1.20;;;25.20;99.90;;;;;;4996578;28;20173;-84
2022/07/04 10:53:27;;;;;;;4.00;1.00;;;24.80;99.90;;;;;;4995873;28;20194;-87
2022/07/04 10:55:53;;;;;;;3.00;1.05;;;24.90;99.90;;;;;;4995140;28;20173;-88
2022/07/04 10:58:50;;;;;;;5.35;0.98;;;25.10;99.90;;;;;;4998835;28;20591;-87
2022/07/04 11:01:17;;;;;;;3.35;0.98;;;24.90;99.90;;;;;;4986371;28;20178;-88
2022/07/04 11:03:50;;;;;;;6.80;0.90;;;24.70;99.90;;;;;;4995989;28;20181;-86
2022/07/04 11:06:35;;;;;;;1.60;0.77;;;24.70;99.90;;;;;;4996436;28;20475;-84
2022/07/04 11:09:30;;;;;;;1.88;1.05;;;24.90;99.90;;;;;;4994736;28;20197;-83
2022/07/04 11:11:58;;;;;;;8.65;1.33;;;25.30;99.90;;;;;;4983719;28;20248;-91
2022/07/04 11:14:54;;;;;;;16.00;3.15;;;25.50;99.90;;;;;;4992247;28;20180;-84
2022/07/04 11:17:26;;;;;;;13.27;1.83;;;25.50;99.90;;;;;;4990650;28;20181;-83
2022/07/04 11:19:59;;;;;;;4.82;1.23;;;25.50;99.90;;;;;;4976215;28;20190;-83
2022/07/04 11:22:25;;;;;;;3.83;1.30;;;25.50;99.90;;;;;;4974527;28;20893;-84
2022/07/04 11:24:53;;;;;;;2.08;1.08;;;25.90;99.90;;;;;;4975978;28;20166;-84
2022/07/04 11:27:22;;;;;;;2.15;1.00;;;25.70;99.90;;;;;;4975304;28;20542;-84
2022/07/04 11:29:54;;;;;;;8.27;1.45;;;25.40;99.90;;;;;;4975666;28;20681;-82
2022/07/04 11:32:21;;;;;;;11.38;1.40;;;25.70;99.90;;;;;;4975095;28;20673;-84
2022/07/04 11:34:48;;;;;;;5.70;1.52;;;25.90;99.90;;;;;;4975537;28;20178;-85
2022/07/04 11:37:14;;;;;;;8.93;1.55;;;25.80;99.90;;;;;;4974162;28;20173;-83
2022/07/04 11:39:40;;;;;;;3.35;1.05;;;25.90;99.90;;;;;;4974475;28;20244;-82
2022/07/04 11:45:05;;;;;;;2.10;1.10;;;26.10;99.90;;;;;;4975587;28;20250;-82
2022/07/04 11:47:43;;;;;;;8.05;1.55;;;25.50;99.90;;;;;;4975445;28;20265;-83
2022/07/04 11:50:14;;;;;;;5.00;1.60;;;25.00;99.90;;;;;;4975123;28;20186;-83
2022/07/04 11:52:46;;;;;;;20.23;1.92;;;24.80;99.90;;;;;;4974188;28;20197;-85
2022/07/04 11:55:14;;;;;;;1.40;1.00;;;24.90;99.90;;;;;;4975392;28;20169;-82
2022/07/04 11:57:44;;;;;;;1.60;0.80;;;25.00;99.90;;;;;;4993616;28;20177;-83
2022/07/04 12:00:11;;;;;;;2.15;1.00;;;25.00;99.90;;;;;;4994765;28;20594;-82
2022/07/04 12:02:38;;;;;;;5.50;1.10;;;24.90;99.90;;;;;;4994496;28;20290;-82
2022/07/04 12:05:07;;;;;;;3.10;1.10;;;24.80;99.90;;;;;;4993335;28;20272;-82
2022/07/04 12:07:35;;;;;;;4.28;1.30;;;24.70;99.90;;;;;;4995704;28;20535;-81
2022/07/04 12:10:13;;;;;;;4.78;2.90;;;24.70;99.90;;;;;;5004241;28;20216;-82
2022/07/04 12:13:06;;;;;;;47.17;2.35;;;24.70;99.90;;;;;;4994945;28;20177;-83
2022/07/04 12:15:49;;;;;;;2.15;0.95;;;24.80;99.90;;;;;;4993917;28;20215;-84
2022/07/04 12:18:31;;;;;;;4.75;0.90;;;24.80;99.90;;;;;;4992996;28;20181;-82
2022/07/04 12:21:17;;;;;;;1.20;0.73;;;25.00;99.90;;;;;;4993464;28;20255;-82
2022/07/04 12:23:54;;;;;;;2.35;0.80;;;25.00;99.90;;;;;;4993885;28;20672;-85
2022/07/04 12:26:19;;;;;;;1.20;0.90;;;25.10;99.90;;;;;;4993852;28;20211;-84
2022/07/04 12:28:46;;;;;;;4.88;1.00;;;25.20;99.90;;;;;;4970883;28;20674;-82
2022/07/04 12:31:13;;;;;;;2.75;1.10;;;25.10;99.90;;;;;;4993362;28;20251;-84
2022/07/04 12:33:39;;;;;;;5.75;1.27;;;25.10;99.90;;;;;;4978556;28;20191;-82
2022/07/04 12:36:06;;;;;;;4.22;1.55;;;25.10;99.90;;;;;;4994944;28;20168;-83
2022/07/04 12:38:37;;;;;;;0.75;0.60;;;25.40;99.90;;;;;;4998014;28;20204;-82
2022/07/04 12:41:03;;;;;;;1.83;1.70;;;25.60;99.90;;;;;;5002583;28;20621;-84
2022/07/04 12:43:41;;;;;;;4.15;1.15;;;25.90;99.90;;;;;;5016412;28;20219;-82
2022/07/04 12:46:24;;;;;;;8.60;1.00;;;26.20;99.90;;;;;;4998609;28;20549;-84
2022/07/04 12:48:51;;;;;;;1.27;0.68;;;26.30;99.90;;;;;;4993534;28;20204;-83
2022/07/04 12:51:22;;;;;;;1.30;0.82;;;26.60;99.90;;;;;;4993972;28;20179;-83
2022/07/04 12:53:51;;;;;;;4.68;0.77;;;26.50;99.90;;;;;;4994197;28;20247;-83
2022/07/04 12:56:33;;;;;;;1.92;0.75;;;26.60;99.90;;;;;;4996531;28;20546;-83
2022/07/04 12:59:03;;;;;;;5.57;0.70;;;26.90;99.90;;;;;;4993280;28;20208;-84
2022/07/04 13:01:29;;;;;;;1.30;0.68;;;26.70;99.90;;;;;;4993906;28;20196;-85
2022/07/04 13:03:55;;;;;;;1.98;1.25;;;26.70;99.90;;;;;;4994599;28;20180;-84